createdAt,value
2023-04-26T00:02:24.696Z,1.20
2023-04-26T00:04:52.268Z,1.00
2023-04-26T00:07:19.447Z,1.20
2023-04-26T00:09:46.327Z,1.00
2023-04-26T00:12:13.273Z,1.10
2023-04-26T00:14:40.215Z,1.17
2023-04-26T00:17:07.133Z,1.40
2023-04-26T00:19:36.675Z,1.30
2023-04-26T00:22:03.596Z,1.40
2023-04-26T00:24:30.480Z,1.20
2023-04-26T00:26:57.396Z,1.10
2023-04-26T00:29:24.424Z,1.20
2023-04-26T00:31:51.419Z,1.20
2023-04-26T00:34:18.411Z,1.10
2023-04-26T00:36:48.171Z,1.03
2023-04-26T00:39:15.073Z,1.17
2023-04-26T00:41:41.935Z,1.10
2023-04-26T00:44:08.835Z,1.10
2023-04-26T00:46:35.722Z,1.37
2023-04-26T00:49:02.992Z,1.00
2023-04-26T00:51:29.946Z,1.30
2023-04-26T00:54:00.073Z,0.90
2023-04-26T00:56:27.256Z,1.00
2023-04-26T00:58:54.354Z,0.90
2023-04-26T01:01:21.707Z,1.10
2023-04-26T01:03:48.881Z,1.20
2023-04-26T01:06:16.588Z,1.30
2023-04-26T01:08:43.564Z,1.20
2023-04-26T01:11:14.787Z,1.23
2023-04-26T01:13:42.229Z,1.53
2023-04-26T01:16:09.405Z,1.00
2023-04-26T01:18:36.377Z,1.13
2023-04-26T01:21:03.659Z,1.13
2023-04-26T01:23:33.214Z,1.23
2023-04-26T01:26:00.527Z,1.20
2023-04-26T01:28:27.399Z,1.20
2023-04-26T01:30:54.328Z,1.07
2023-04-26T01:33:21.225Z,1.27
2023-04-26T01:35:48.090Z,1.00
2023-04-26T01:38:14.971Z,1.13
2023-04-26T01:40:44.479Z,1.27
2023-04-26T01:43:11.374Z,1.20
2023-04-26T01:45:38.237Z,1.13
2023-04-26T01:48:06.289Z,1.20
2023-04-26T01:50:33.290Z,1.43
2023-04-26T01:53:00.140Z,1.57
2023-04-26T01:55:27.064Z,1.30
2023-04-26T01:57:56.553Z,1.67
2023-04-26T02:00:23.685Z,1.83
2023-04-26T02:02:50.637Z,1.67
2023-04-26T02:05:17.607Z,1.60
2023-04-26T02:07:44.621Z,1.53
2023-04-26T02:10:11.566Z,1.47
2023-04-26T02:12:38.508Z,1.60
2023-04-26T02:15:09.385Z,1.70
2023-04-26T02:17:36.302Z,1.70
2023-04-26T02:20:03.390Z,1.80
2023-04-26T02:22:30.290Z,2.20
2023-04-26T02:24:57.254Z,1.80
2023-04-26T02:27:24.186Z,1.87
2023-04-26T02:29:51.100Z,1.63
2023-04-26T02:32:20.606Z,1.80
2023-04-26T02:34:47.526Z,1.57
2023-04-26T02:37:14.394Z,1.63
2023-04-26T02:39:41.256Z,1.87
2023-04-26T02:42:09.498Z,1.70
2023-04-26T02:44:36.424Z,1.60
2023-04-26T02:47:03.776Z,1.57
2023-04-26T02:49:33.649Z,1.90
2023-04-26T02:52:00.528Z,1.50
2023-04-26T02:54:27.410Z,1.70
2023-04-26T02:56:54.326Z,1.50
2023-04-26T02:59:21.253Z,1.87
2023-04-26T03:01:48.457Z,1.77
2023-04-26T03:04:15.613Z,2.10
2023-04-26T03:06:45.138Z,1.80
2023-04-26T03:09:12.068Z,1.57
2023-04-26T03:11:38.955Z,1.80
2023-04-26T03:14:05.872Z,1.23
2023-04-26T03:16:41.454Z,1.40
2023-04-26T03:19:08.464Z,1.60
2023-04-26T03:21:35.361Z,1.77
2023-04-26T03:24:05.375Z,1.67
2023-04-26T03:26:32.256Z,1.50
2023-04-26T03:28:59.142Z,2.10
2023-04-26T03:31:26.210Z,2.20
2023-04-26T03:33:53.134Z,2.10
2023-04-26T03:36:19.989Z,2.07
2023-04-26T03:38:47.061Z,2.10
2023-04-26T03:41:16.484Z,2.00
2023-04-26T03:43:43.385Z,2.10
2023-04-26T03:46:10.318Z,1.70
2023-04-26T03:48:37.272Z,2.00
2023-04-26T03:51:04.258Z,1.70
2023-04-26T03:53:31.229Z,1.87
2023-04-26T03:55:58.178Z,2.20
2023-04-26T03:58:28.028Z,2.07
2023-04-26T04:00:57.220Z,2.07
2023-04-26T04:03:24.669Z,2.07
2023-04-26T04:05:51.696Z,1.70
2023-04-26T04:08:18.575Z,1.97
2023-04-26T04:10:45.527Z,1.60
2023-04-26T04:13:12.462Z,1.57
2023-04-26T04:15:42.086Z,1.60
2023-04-26T04:18:09.182Z,1.60
2023-04-26T04:20:36.371Z,1.60
2023-04-26T04:23:03.280Z,1.60
2023-04-26T04:25:30.223Z,1.73
2023-04-26T04:27:57.083Z,1.90
2023-04-26T04:30:23.931Z,2.00
2023-04-26T04:32:53.661Z,1.67
2023-04-26T04:35:20.619Z,1.73
2023-04-26T04:37:47.492Z,1.70
2023-04-26T04:40:14.502Z,1.90
2023-04-26T04:42:41.415Z,1.73
2023-04-26T04:45:09.698Z,2.10
2023-04-26T04:47:36.594Z,2.10
2023-04-26T04:50:08.049Z,2.07
2023-04-26T04:52:35.010Z,2.20
2023-04-26T04:55:01.929Z,2.37
2023-04-26T04:57:29.131Z,2.50
2023-04-26T04:59:56.026Z,3.23
2023-04-26T05:02:23.277Z,4.60
2023-04-26T05:04:50.458Z,5.70
2023-04-26T05:07:20.149Z,5.60
2023-04-26T05:09:47.038Z,6.30
2023-04-26T05:12:13.919Z,4.90
2023-04-26T05:14:40.908Z,5.20
2023-04-26T05:17:07.749Z,4.47
2023-04-26T05:19:34.640Z,4.30
2023-04-26T05:22:01.531Z,3.20
2023-04-26T05:24:32.569Z,2.63
2023-04-26T05:26:59.649Z,2.50
2023-04-26T05:29:29.266Z,2.37
2023-04-26T05:31:56.181Z,2.23
2023-04-26T05:34:23.476Z,2.00
2023-04-26T05:36:50.409Z,2.10
2023-04-26T05:39:17.351Z,2.23
2023-04-26T05:41:47.015Z,2.40
2023-04-26T05:44:14.200Z,2.00
2023-04-26T05:46:41.240Z,1.90
2023-04-26T05:49:08.211Z,2.07
2023-04-26T05:51:35.112Z,1.83
2023-04-26T05:54:02.001Z,2.37
2023-04-26T05:56:28.860Z,2.13
2023-04-26T05:58:58.472Z,2.13
2023-04-26T06:01:25.461Z,2.50
2023-04-26T06:03:54.320Z,2.20
2023-04-26T06:06:23.178Z,2.17
2023-04-26T06:08:50.094Z,2.60
2023-04-26T06:11:16.997Z,2.50
2023-04-26T06:13:43.897Z,2.30
2023-04-26T06:16:13.486Z,2.77
2023-04-26T06:18:40.430Z,2.30
2023-04-26T06:21:07.601Z,2.43
2023-04-26T06:23:34.541Z,2.53
2023-04-26T06:26:01.679Z,3.00
2023-04-26T06:28:28.603Z,2.90
2023-04-26T06:30:55.656Z,2.73
2023-04-26T06:33:25.208Z,3.10
2023-04-26T06:35:52.103Z,3.13
2023-04-26T06:38:19.036Z,3.27
2023-04-26T06:40:45.910Z,3.00
2023-04-26T06:43:12.812Z,3.70
2023-04-26T06:45:41.434Z,3.90
2023-04-26T06:48:09.105Z,4.13
2023-04-26T06:50:40.616Z,3.77
2023-04-26T06:53:07.905Z,4.47
2023-04-26T06:55:34.841Z,3.70
2023-04-26T06:58:01.766Z,3.80
2023-04-26T07:00:28.771Z,4.37
2023-04-26T07:02:55.809Z,3.23
2023-04-26T07:05:23.484Z,3.23
2023-04-26T07:07:53.155Z,3.10
2023-04-26T07:10:20.334Z,2.93
2023-04-26T07:12:47.488Z,2.73
2023-04-26T07:15:14.385Z,3.10
2023-04-26T07:17:41.298Z,3.33
2023-04-26T07:20:09.614Z,2.47
2023-04-26T07:22:36.493Z,2.67
2023-04-26T07:25:06.763Z,2.53
2023-04-26T07:27:33.648Z,2.37
2023-04-26T07:30:00.580Z,2.40
2023-04-26T07:32:27.545Z,2.10
2023-04-26T07:34:54.472Z,2.20
2023-04-26T07:37:21.432Z,1.87
2023-04-26T07:39:48.309Z,1.60
2023-04-26T07:42:18.084Z,1.80
2023-04-26T07:44:44.998Z,1.97
2023-04-26T07:47:12.919Z,1.70
2023-04-26T07:49:39.816Z,1.90
2023-04-26T07:52:08.086Z,1.83
2023-04-26T07:54:35.021Z,2.10
2023-04-26T07:57:01.930Z,1.87
2023-04-26T07:59:31.490Z,1.83
2023-04-26T08:01:58.433Z,1.60
2023-04-26T08:04:32.413Z,2.00
2023-04-26T08:06:59.634Z,1.80
2023-04-26T08:09:26.491Z,1.70
2023-04-26T08:11:53.461Z,1.83
2023-04-26T08:14:20.466Z,1.70
2023-04-26T08:16:50.198Z,2.27
2023-04-26T08:19:17.060Z,2.10
2023-04-26T08:21:43.991Z,1.87
2023-04-26T08:24:10.874Z,1.80
2023-04-26T08:26:37.759Z,2.00
2023-04-26T08:29:04.668Z,1.83
2023-04-26T08:31:31.623Z,1.93
2023-04-26T08:34:01.149Z,2.03
2023-04-26T08:36:28.068Z,1.77
2023-04-26T08:38:54.960Z,1.80
2023-04-26T08:41:23.838Z,1.63
2023-04-26T08:43:51.551Z,1.80
2023-04-26T08:46:20.156Z,1.97
2023-04-26T08:48:54.094Z,1.83
2023-04-26T08:51:23.703Z,1.30
2023-04-26T08:53:52.154Z,2.07
2023-04-26T08:56:22.553Z,1.50
2023-04-26T08:58:49.786Z,1.70
2023-04-26T09:01:18.407Z,1.77
2023-04-26T09:03:45.459Z,1.67
2023-04-26T09:06:13.261Z,1.90
2023-04-26T09:08:44.242Z,1.20
2023-04-26T09:11:11.130Z,1.70
2023-04-26T09:13:38.003Z,1.40
2023-04-26T09:16:05.598Z,1.80
2023-04-26T09:18:32.601Z,1.60
2023-04-26T09:21:05.183Z,1.53
2023-04-26T09:23:32.168Z,1.30
2023-04-26T09:26:20.518Z,1.67
2023-04-26T09:28:47.532Z,1.23
2023-04-26T09:31:36.134Z,1.23
2023-04-26T09:34:03.118Z,1.30
2023-04-26T09:36:30.004Z,1.57
2023-04-26T09:38:56.973Z,1.47
2023-04-26T09:41:42.195Z,1.33
2023-04-26T09:44:21.479Z,1.50
2023-04-26T09:46:58.509Z,1.30
2023-04-26T09:49:26.520Z,1.33
2023-04-26T09:52:04.221Z,1.30
2023-04-26T09:54:42.546Z,1.30
2023-04-26T09:57:12.671Z,1.40
2023-04-26T09:59:40.869Z,1.50
2023-04-26T10:02:15.473Z,1.23
2023-04-26T10:04:44.601Z,1.30
2023-04-26T10:07:12.921Z,1.50
2023-04-26T10:09:40.030Z,1.43
2023-04-26T10:12:07.065Z,1.23
2023-04-26T10:14:37.400Z,1.30
2023-04-26T10:17:04.925Z,1.23
2023-04-26T10:19:33.768Z,1.50
2023-04-26T10:22:04.866Z,1.23
2023-04-26T10:24:32.106Z,1.23
2023-04-26T10:26:58.983Z,1.57
2023-04-26T10:29:46.300Z,1.00
2023-04-26T10:32:15.851Z,1.33
2023-04-26T10:34:43.090Z,1.40
2023-04-26T10:37:11.179Z,1.20
2023-04-26T10:39:38.566Z,1.20
2023-04-26T10:42:21.965Z,1.20
2023-04-26T10:44:50.674Z,1.30
2023-04-26T10:47:29.257Z,1.23
2023-04-26T10:50:06.434Z,1.30
2023-04-26T10:52:33.749Z,1.17
2023-04-26T10:55:01.556Z,1.47
2023-04-26T10:57:58.356Z,1.33
2023-04-26T11:00:32.485Z,1.53
2023-04-26T11:03:13.467Z,1.47
2023-04-26T11:05:53.996Z,0.90
2023-04-26T11:08:24.119Z,1.10
2023-04-26T11:10:52.661Z,1.20
2023-04-26T11:13:19.712Z,1.37
2023-04-26T11:15:47.298Z,1.20
2023-04-26T11:18:19.697Z,1.10
2023-04-26T11:20:46.932Z,1.27
2023-04-26T11:23:14.045Z,0.90
2023-04-26T11:25:41.041Z,1.13
2023-04-26T11:28:08.008Z,1.30
2023-04-26T11:30:34.906Z,1.20
2023-04-26T11:33:03.218Z,1.47
2023-04-26T11:35:35.040Z,1.20
2023-04-26T11:38:04.881Z,1.27
2023-04-26T11:40:32.772Z,1.37
2023-04-26T11:43:00.542Z,1.50
2023-04-26T11:45:27.459Z,1.10
2023-04-26T11:47:55.337Z,1.13
2023-04-26T11:50:22.348Z,1.20
2023-04-26T11:52:51.952Z,1.10
2023-04-26T11:55:18.921Z,1.50
2023-04-26T11:57:45.833Z,1.27
2023-04-26T12:00:14.540Z,1.20
2023-04-26T12:02:44.733Z,1.10
2023-04-26T12:05:12.170Z,1.37
2023-04-26T12:07:39.445Z,1.13
2023-04-26T12:10:19.541Z,1.20
2023-04-26T12:12:49.708Z,1.33
2023-04-26T12:15:17.226Z,1.30
2023-04-26T12:17:59.247Z,1.20
2023-04-26T12:20:30.546Z,1.20
2023-04-26T12:23:02.149Z,1.50
2023-04-26T12:25:32.361Z,1.50
2023-04-26T12:27:59.841Z,1.80
2023-04-26T12:30:28.346Z,1.40
2023-04-26T12:33:00.069Z,1.47
2023-04-26T12:35:30.583Z,1.50
2023-04-26T12:37:58.139Z,1.70
2023-04-26T12:40:25.183Z,1.53
2023-04-26T12:42:55.611Z,1.60
2023-04-26T12:45:23.930Z,1.23
2023-04-26T12:47:50.991Z,1.13
2023-04-26T12:50:18.778Z,1.20
2023-04-26T12:52:46.076Z,1.17
2023-04-26T12:55:14.787Z,1.20
2023-04-26T12:57:43.315Z,1.17
2023-04-26T13:00:14.906Z,1.10
2023-04-26T13:02:42.058Z,1.30
2023-04-26T13:05:09.867Z,1.27
2023-04-26T13:07:43.665Z,1.20
2023-04-26T13:10:12.848Z,1.47
2023-04-26T13:12:40.346Z,1.57
2023-04-26T13:15:08.794Z,1.53
2023-04-26T13:17:38.589Z,1.37
2023-04-26T13:20:06.852Z,1.33
2023-04-26T13:22:34.015Z,1.30
2023-04-26T13:25:00.911Z,1.10
2023-04-26T13:27:30.501Z,1.10
2023-04-26T13:29:58.479Z,1.33
2023-04-26T13:32:25.609Z,1.57
2023-04-26T13:34:55.244Z,1.20
2023-04-26T13:37:24.507Z,1.30
2023-04-26T13:39:51.428Z,1.33
2023-04-26T13:42:18.420Z,1.47
2023-04-26T13:44:45.271Z,1.20
2023-04-26T13:47:12.186Z,1.00
2023-04-26T13:49:39.454Z,1.33
2023-04-26T13:52:08.969Z,1.50
2023-04-26T13:54:35.847Z,1.47
2023-04-26T13:57:02.819Z,1.67
2023-04-26T13:59:29.736Z,1.50
2023-04-26T14:01:58.773Z,1.37
2023-04-26T14:04:26.265Z,1.30
2023-04-26T14:06:53.248Z,1.30
2023-04-26T14:09:22.821Z,1.13
2023-04-26T14:12:00.859Z,1.50
2023-04-26T14:14:33.829Z,1.30
2023-04-26T14:17:00.733Z,1.37
2023-04-26T14:19:27.655Z,1.27
2023-04-26T14:21:54.576Z,1.13
2023-04-26T14:24:24.221Z,1.30
2023-04-26T14:26:51.092Z,1.53
2023-04-26T14:29:17.953Z,1.37
2023-04-26T14:31:44.834Z,1.10
2023-04-26T14:34:11.747Z,1.40
2023-04-26T14:36:38.627Z,1.30
2023-04-26T14:39:05.528Z,1.30
2023-04-26T14:41:35.092Z,1.27
2023-04-26T14:44:01.960Z,1.50
2023-04-26T14:46:28.930Z,1.30
2023-04-26T14:48:55.903Z,1.60
2023-04-26T14:51:22.789Z,1.50
2023-04-26T14:53:49.727Z,1.33
2023-04-26T14:56:16.628Z,1.20
2023-04-26T14:58:46.113Z,1.43
2023-04-26T15:01:12.982Z,1.80
2023-04-26T15:03:39.998Z,1.27
2023-04-26T15:06:08.386Z,1.23
2023-04-26T15:08:35.279Z,1.53
2023-04-26T15:11:03.288Z,1.93
2023-04-26T15:13:30.154Z,3.07
2023-04-26T15:16:03.703Z,2.10
2023-04-26T15:18:31.719Z,1.30
2023-04-26T15:20:58.705Z,1.53
2023-04-26T15:23:25.988Z,1.30
2023-04-26T15:25:52.885Z,1.40
2023-04-26T15:28:19.758Z,1.40
2023-04-26T15:30:46.677Z,1.20
2023-04-26T15:33:17.256Z,1.90
2023-04-26T15:35:44.553Z,1.50
2023-04-26T15:38:11.467Z,1.70
2023-04-26T15:40:38.455Z,1.40
2023-04-26T15:43:05.350Z,1.40
2023-04-26T15:45:32.237Z,1.57
2023-04-26T15:47:59.222Z,1.20
2023-04-26T15:50:28.705Z,1.30
2023-04-26T15:52:55.597Z,1.47
2023-04-26T15:55:22.507Z,1.23
2023-04-26T15:57:49.423Z,1.50
2023-04-26T16:00:17.337Z,1.43
2023-04-26T16:02:44.326Z,1.40
2023-04-26T16:05:11.784Z,1.70
2023-04-26T16:07:41.503Z,1.37
2023-04-26T16:10:09.895Z,1.10
2023-04-26T16:12:37.080Z,1.30
2023-04-26T16:15:04.467Z,1.50
2023-04-26T16:17:31.424Z,1.30
2023-04-26T16:19:58.347Z,1.23
2023-04-26T16:22:25.197Z,1.50
2023-04-26T16:24:54.680Z,1.50
2023-04-26T16:27:21.526Z,1.40
2023-04-26T16:29:48.453Z,1.20
2023-04-26T16:32:15.664Z,1.40
2023-04-26T16:34:42.555Z,1.20
2023-04-26T16:37:09.469Z,1.40
2023-04-26T16:39:37.054Z,1.10
2023-04-26T16:42:06.707Z,1.23
2023-04-26T16:44:34.036Z,1.17
2023-04-26T16:47:01.368Z,1.30
2023-04-26T16:49:28.490Z,1.20
2023-04-26T16:51:55.383Z,1.23
2023-04-26T16:54:22.320Z,1.53
2023-04-26T16:56:49.196Z,2.10
2023-04-26T16:59:18.740Z,1.60
2023-04-26T17:01:46.207Z,1.60
2023-04-26T17:04:13.779Z,1.90
2023-04-26T17:06:40.819Z,1.50
2023-04-26T17:09:07.785Z,1.50
2023-04-26T17:11:34.677Z,1.40
2023-04-26T17:14:01.600Z,1.70
2023-04-26T17:16:31.171Z,1.47
2023-04-26T17:18:58.096Z,1.40
2023-04-26T17:21:25.094Z,1.40
2023-04-26T17:23:52.121Z,1.37
2023-04-26T17:26:19.074Z,1.20
2023-04-26T17:28:45.994Z,1.20
2023-04-26T17:31:12.915Z,1.30
2023-04-26T17:33:42.414Z,1.20
2023-04-26T17:36:09.302Z,1.47
2023-04-26T17:38:36.397Z,1.30
2023-04-26T17:41:03.464Z,1.60
2023-04-26T17:43:30.433Z,1.47
2023-04-26T17:45:57.380Z,1.57
2023-04-26T17:48:24.356Z,1.70
2023-04-26T17:50:53.909Z,1.30
2023-04-26T17:53:20.979Z,1.63
2023-04-26T17:55:48.160Z,1.10
2023-04-26T17:58:15.124Z,1.50
2023-04-26T18:00:42.057Z,1.50
2023-04-26T18:03:09.204Z,1.50
2023-04-26T18:05:36.205Z,1.30
2023-04-26T18:08:05.703Z,1.40
2023-04-26T18:10:32.942Z,1.20
2023-04-26T18:12:59.855Z,1.43
2023-04-26T18:15:26.719Z,1.33
2023-04-26T18:17:53.893Z,1.30
2023-04-26T18:20:21.153Z,1.20
2023-04-26T18:22:48.004Z,1.27
2023-04-26T18:25:17.564Z,1.20
2023-04-26T18:27:44.443Z,1.90
2023-04-26T18:30:11.943Z,1.83
2023-04-26T18:32:38.892Z,1.63
2023-04-26T18:35:06.914Z,2.23
2023-04-26T18:37:33.840Z,2.00
2023-04-26T18:40:00.845Z,1.97
2023-04-26T18:42:30.343Z,1.90
2023-04-26T18:44:57.281Z,2.27
2023-04-26T18:47:24.427Z,2.50
2023-04-26T18:49:51.451Z,2.10
2023-04-26T18:52:18.433Z,2.00
2023-04-26T18:54:45.363Z,1.87
2023-04-26T18:57:12.300Z,2.00
2023-04-26T18:59:41.827Z,1.80
2023-04-26T19:02:08.950Z,1.37
2023-04-26T19:04:36.252Z,1.43
2023-04-26T19:07:03.340Z,1.60
2023-04-26T19:09:31.990Z,1.60
2023-04-26T19:12:01.988Z,1.80
2023-04-26T19:14:28.893Z,1.50
2023-04-26T19:16:58.386Z,1.57
2023-04-26T19:19:25.426Z,1.60
2023-04-26T19:21:52.361Z,1.70
2023-04-26T19:24:19.291Z,2.00
2023-04-26T19:26:46.233Z,1.80
2023-04-26T19:29:13.246Z,2.40
2023-04-26T19:31:40.303Z,2.17
2023-04-26T19:34:12.025Z,1.60
2023-04-26T19:36:39.593Z,1.70
2023-04-26T19:39:06.499Z,1.90
2023-04-26T19:41:33.399Z,2.10
2023-04-26T19:44:00.315Z,1.83
2023-04-26T19:46:27.282Z,2.27
2023-04-26T19:48:54.222Z,2.10
2023-04-26T19:51:23.696Z,2.10
2023-04-26T19:53:50.618Z,2.03
2023-04-26T19:56:17.537Z,2.00
2023-04-26T19:58:44.429Z,1.87
2023-04-26T20:01:11.420Z,1.60
2023-04-26T20:03:38.610Z,1.70
2023-04-26T20:06:05.818Z,1.67
2023-04-26T20:08:35.340Z,1.87
2023-04-26T20:11:02.541Z,2.00
2023-04-26T20:13:29.475Z,2.37
2023-04-26T20:15:56.395Z,2.00
2023-04-26T20:18:23.343Z,1.70
2023-04-26T20:20:50.335Z,2.03
2023-04-26T20:23:17.280Z,2.97
2023-04-26T20:25:46.810Z,2.00
2023-04-26T20:28:13.734Z,1.63
2023-04-26T20:30:41.455Z,1.40
2023-04-26T20:33:08.503Z,1.90
2023-04-26T20:35:35.440Z,3.30
2023-04-26T20:38:02.351Z,4.70
2023-04-26T20:40:29.259Z,2.13
2023-04-26T20:42:58.724Z,1.80
2023-04-26T20:45:25.618Z,1.60
2023-04-26T20:47:52.658Z,2.20
2023-04-26T20:50:19.826Z,3.50
2023-04-26T20:52:46.752Z,3.80
2023-04-26T20:55:13.833Z,3.13
2023-04-26T20:57:40.754Z,3.33
2023-04-26T21:00:11.403Z,3.37
2023-04-26T21:02:38.513Z,2.60
2023-04-26T21:05:06.402Z,2.67
2023-04-26T21:07:33.862Z,2.20
2023-04-26T21:10:00.750Z,1.80
2023-04-26T21:12:27.660Z,1.80
2023-04-26T21:14:54.567Z,1.63
2023-04-26T21:17:24.102Z,1.50
2023-04-26T21:19:51.086Z,1.60
2023-04-26T21:22:18.021Z,1.50
2023-04-26T21:24:45.023Z,1.20
2023-04-26T21:27:11.990Z,1.87
2023-04-26T21:29:38.870Z,1.60
2023-04-26T21:32:05.984Z,2.20
2023-04-26T21:34:35.493Z,2.80
2023-04-26T21:37:02.388Z,2.97
2023-04-26T21:39:29.340Z,3.03
2023-04-26T21:41:56.223Z,2.60
2023-04-26T21:44:23.131Z,3.37
2023-04-26T21:46:50.049Z,3.13
2023-04-26T21:49:16.959Z,2.70
2023-04-26T21:51:46.668Z,2.03
2023-04-26T21:54:13.535Z,1.90
2023-04-26T21:56:40.401Z,1.77
2023-04-26T21:59:07.543Z,1.50
2023-04-26T22:01:34.764Z,1.50
2023-04-26T22:04:01.887Z,1.60
2023-04-26T22:06:28.853Z,1.30
2023-04-26T22:08:58.402Z,1.50
2023-04-26T22:11:25.343Z,1.60
2023-04-26T22:13:52.279Z,1.70
2023-04-26T22:16:19.255Z,1.63
2023-04-26T22:18:46.205Z,1.70
2023-04-26T22:21:13.123Z,1.63
2023-04-26T22:23:40.028Z,1.33
2023-04-26T22:26:09.526Z,1.50
2023-04-26T22:28:36.422Z,1.23
2023-04-26T22:31:03.525Z,1.43
2023-04-26T22:33:30.480Z,1.90
2023-04-26T22:35:57.714Z,1.77
2023-04-26T22:38:24.840Z,1.63
2023-04-26T22:40:51.806Z,1.80
2023-04-26T22:43:22.484Z,1.80
2023-04-26T22:45:49.543Z,1.70
2023-04-26T22:48:17.565Z,1.90
2023-04-26T22:50:44.462Z,1.77
2023-04-26T22:53:11.401Z,1.90
2023-04-26T22:55:38.316Z,1.50
2023-04-26T22:58:05.268Z,1.30
2023-04-26T23:00:34.920Z,1.50
2023-04-26T23:03:01.946Z,1.50
2023-04-26T23:05:28.924Z,1.40
2023-04-26T23:07:55.835Z,1.37
2023-04-26T23:10:22.745Z,1.37
2023-04-26T23:12:49.830Z,1.20
2023-04-26T23:15:16.729Z,1.50
2023-04-26T23:17:46.374Z,1.50
2023-04-26T23:20:13.433Z,1.27
2023-04-26T23:22:40.764Z,1.23
2023-04-26T23:25:09.164Z,1.23
2023-04-26T23:27:36.990Z,1.90
2023-04-26T23:30:04.533Z,1.30
2023-04-26T23:32:31.468Z,1.20
2023-04-26T23:35:01.248Z,1.00
2023-04-26T23:37:28.173Z,1.40
2023-04-26T23:39:55.096Z,1.30
2023-04-26T23:42:21.984Z,1.07
2023-04-26T23:44:48.901Z,1.60
2023-04-26T23:47:15.858Z,1.20
2023-04-26T23:49:42.744Z,1.40
2023-04-26T23:52:12.398Z,1.30
2023-04-26T23:54:39.324Z,1.23
2023-04-26T23:57:06.213Z,1.10
2023-04-26T23:59:33.151Z,1.30
